ADDS METAR Data INFO
IDs: Format: Raw Decoded Include TAF

Data at: 1536 UTC 25 Feb 2018

KCIR 251515Z AUTO 25006KT 10SM CLR 06/02 A3016 RMK AO2 T00640018
KCIR 251455Z AUTO 23004KT 10SM CLR 06/02 A3014 RMK AO2 T00600022
KCIR 251435Z AUTO 22004KT 10SM CLR 06/02 A3014 RMK AO2 T00580021
KCIR 251415Z AUTO 25004KT 10SM CLR 06/01 A3012 RMK AO2 T00570010
KCIR 251355Z AUTO 26004KT 10SM CLR 06/00 A3012 RMK AO2 T00600001
KCIR 251335Z AUTO 00000KT 10SM CLR 05/00 A3011 RMK AO2 T00531001
KCIR 251315Z AUTO 32005KT 10SM CLR 05/00 A3010 RMK AO2 T00511003
KCIR 251255Z AUTO 29003KT 10SM CLR 05/01 A3010 RMK AO2 T00510008
KCIR 251235Z AUTO 27005KT 10SM CLR 05/02 A3009 RMK AO2 T00520017
KCIR 251215Z AUTO 27004KT 10SM CLR 05/02 A3008 RMK AO2 T00510019
KCIR 251155Z AUTO 00000KT 10SM CLR 06/01 A3007 RMK AO2 70144 T00550011 10152 20055
KCIR 251135Z AUTO 28007KT 10SM CLR 06/01 A3006 RMK AO2 T00560008
KCIR 251115Z AUTO 28006KT 10SM CLR 06/02 A3004 RMK AO2 T00600015
KCIR 251055Z AUTO 28006KT 10SM CLR 06/02 A3003 RMK AO2 T00620019
KCIR 251035Z AUTO 28009KT 10SM CLR 07/02 A3002 RMK AO2 T00650016
KCIR 251015Z AUTO 29008KT 10SM CLR 07/02 A3001 RMK AO2 T00670022
KCIR 250955Z AUTO 27009KT 10SM CLR 07/03 A3000 RMK AO2 T00690028
KCIR 250935Z AUTO 27007KT 10SM CLR 07/03 A3000 RMK AO2 T00700029
KCIR 250915Z AUTO 28010KT 10SM CLR 07/03 A2999 RMK AO2 T00710029
KCIR 250855Z AUTO 28010G22KT 10SM CLR 08/03 A2997 RMK AO2 T00750027
KCIR 250835Z AUTO 28017G23KT 10SM CLR 08/03 A2996 RMK AO2 T00800029
KCIR 250815Z AUTO 28013KT 10SM CLR 09/04 A2995 RMK AO2 T00880042
KCIR 250755Z AUTO 28013G24KT 10SM CLR 09/05 A2994 RMK AO2 T00930045
KCIR 250735Z AUTO 28013G22KT 10SM CLR 10/05 A2993 RMK AO2 T00980052
KCIR 250715Z AUTO 28020G29KT 10SM CLR 11/05 A2991 RMK AO2 T01060052
KCIR 250655Z AUTO 28017G23KT 10SM SCT028 12/07 A2989 RMK AO2 T01160068
KCIR 250635Z AUTO 27018G22KT 10SM SCT023 BKN028 BKN034 13/09 A2986 RMK AO2 T01310093
KCIR 250615Z AUTO 27016G24KT 10SM BKN023 BKN028 OVC034 15/11 A2983 RMK AO2 T01490112
KCIR 250555Z AUTO 23009G18KT 10SM SCT029 BKN034 15/12 A2982 RMK AO2 60072 T01540122 10178 20150 401780091
KCIR 250535Z AUTO 25012G18KT 10SM SCT040 16/12 A2981 RMK AO2 T01550120
KCIR 250515Z AUTO 25012G20KT 10SM SCT019 SCT031 BKN041 16/13 A2979 RMK AO2 T01600130
KCIR 250455Z AUTO 24011KT 10SM BKN019 BKN030 OVC037 16/15 A2979 RMK AO2 T01590145
KCIR 250435Z AUTO 22009G14KT 10SM OVC016 16/15 A2978 RMK AO2 T01600145
KCIR 250415Z AUTO 22013G18KT 10SM OVC018 16/15 A2978 RMK AO2 T01620147
KCIR 250355Z AUTO 22012G18KT 10SM OVC020 17/15 A2976 RMK AO2 T01650147
KCIR 250335Z AUTO 22013G18KT 10SM BKN018 OVC026 17/15 A2974 RMK AO2 T01680150
KCIR 250315Z AUTO 22014G24KT 10SM BKN017 OVC025 17/16 A2973 RMK AO2 T01700155
KCIR 250255Z AUTO 21012G21KT 10SM SCT013 BKN026 OVC032 17/16 A2972 RMK AO2 60072 T01720155
KCIR 250235Z AUTO 21016G27KT 10SM SCT031 BKN120 18/15 A2971 RMK AO2 T01750150
KCIR 250215Z AUTO 21018G26KT 10SM SCT120 18/15 A2968 RMK AO2 LTG DSNT NE AND SE T01770153
KCIR 250155Z AUTO 20012G20KT 10SM SCT110 18/16 A2967 RMK AO2 LTG DSNT NE AND SE P0003 T01780155
KCIR 250135Z AUTO 17011KT 10SM -RA OVC110 17/17 A2966 RMK AO2 LTG DSNT N THRU SE P0003 T01710166
KCIR 250115Z AUTO 22015G19KT 10SM RA SCT009 SCT019 OVC110 16/16 A2967 RMK AO2 LTG DSNT ALQS P0002 T01620158
KCIR 250055Z AUTO 21015G35KT 1 1/4SM +RA SCT005 OVC009 15/15 A2971 RMK AO2 VIS 3/4V4 LTG DSNT ALQS P0065 T01530149
KCIR 250035Z AUTO 21006KT 5SM +TSRA SCT008 BKN017 OVC044 18/17 A2971 RMK AO2 LTG DSNT NE SW AND NW P0024 T01760173
KCIR 250015Z AUTO 20008KT 3SM +RA SCT009 BKN017 OVC100 18/17 A2971 RMK AO2 LTG DSNT W THRU NE P0016 T01780174
KCIR 242355Z AUTO 17012G19KT 7SM RA SCT049 SCT070 OVC100 18/17 A2970 RMK AO2 LTG DSNT W THRU N P0005 60062 T01750169 10177 20120
KCIR 242335Z AUTO 17014G20KT 10SM -VCTSRA SCT047 BKN070 OVC100 18/17 A2969 RMK AO2 LTG DSNT W THRU N P0002 T01750170
KCIR 242315Z AUTO 16011KT 10SM -RA SCT038 SCT060 OVC100 16/16 A2969 RMK AO2 LTG DSNT W THRU N P0001 T01630161
KCIR 242255Z AUTO 15014G19KT 7SM -RA SCT014 BKN036 OVC095 16/16 A2969 RMK AO2 LTG DSNT W THRU N P0004 T01610160
KCIR 242235Z AUTO 15014G19KT 7SM RA BKN032 BKN040 OVC050 16/16 A2970 RMK AO2 LTG DSNT NW P0003 T01620162
KCIR 242215Z AUTO 15012G18KT 7SM VCTSRA SCT006 BKN033 OVC044 16/16 A2971 RMK AO2 LTG DSNT W P0001 T01600160
KCIR 242155Z AUTO 14010KT 10SM -VCTSRA BKN006 BKN034 OVC050 16/16 A2972 RMK AO2 LTG DSNT W P0004 T01550155
KCIR 242135Z AUTO 12006KT 3SM -RA BKN004 OVC008 14/14 A2974 RMK AO2 LTG DSNT W P0003 T01410141
KCIR 242115Z AUTO 09006KT 5SM RA OVC002 13/13 A2977 RMK AO2 LTG DSNT NW P0001 T01290129
KCIR 242055Z AUTO 07003KT 2SM RA OVC002 13/13 A2979 RMK AO2 VIS 1V3 LTG DSNT N THRU E P0035 60049 T01250125
KCIR 242035Z AUTO 00000KT 2 1/2SM +TSRA BKN002 BKN020 OVC110 13/13 A2981 RMK AO2 VIS 1V5 LTG DSNT ALQS P0015 T01250125
KCIR 242015Z AUTO 06007KT 2 1/2SM RA BKN002 BKN007 OVC110 12/12 A2977 RMK AO2 LTG DSNT ALQS P0010 T01220122
KCIR 241955Z AUTO 12004KT 1 1/4SM +VCTSRA OVC002 12/12 A2983 RMK AO2 LTG DSNT N THRU E P0014 T01210121
KCIR 241935Z AUTO 07005KT 3SM VCTSRA OVC002 12/12 A2983 RMK AO2 LTG DSNT ALQS P0001 T01210121
KCIR 241915Z AUTO 05004KT 7SM OVC004 12/12 A2985 RMK AO2 LTG DSNT SE THRU NW T01210120
KCIR 241855Z AUTO 00000KT 10SM VCTS OVC004 12/12 A2987 RMK AO2 LTG DSNT E THRU W T01200118
KCIR 241835Z AUTO 07003KT 10SM TS OVC004 12/12 A2986 RMK AO2 LTG DSNT SE AND S T01230120
KCIR 241815Z AUTO 10004KT 10SM VCTS OVC004 12/12 A2987 RMK AO2 LTG DSNT SE THRU SW T01230122
KCIR 241755Z AUTO 05005KT 10SM OVC006 12/12 A2988 RMK AO2 60010 T01200118 10120 20094
KCIR 241735Z AUTO 05005KT 10SM OVC006 12/12 A2991 RMK AO2 LTG DSNT SW T01180115
KCIR 241715Z AUTO 08003KT 10SM OVC008 12/11 A2992 RMK AO2 LTG DSNT SW T01150113
KCIR 241655Z AUTO 03004KT 7SM SCT003 OVC008 11/11 A2993 RMK AO2 P0002 T01090109
KCIR 241635Z AUTO 34006G09KT 4SM RA BKN003 BKN008 OVC016 10/10 A2995 RMK AO2 P0002 T01030103
KCIR 241615Z AUTO 07004KT 5SM DZ OVC003 10/10 A2995 RMK AO2 T01020102
KCIR 241555Z AUTO 07005KT 4SM DZ OVC003 10/10 A2995 RMK AO2 P0003 T01000100
KCIR 241535Z AUTO 07006KT 3SM RA OVC003 10/10 A2997 RMK AO2 P0001 T00990099
KCIR 241515Z AUTO 07005KT 3SM RA OVC003 10/10 A2998 RMK AO2 LTG DSNT SW P0001 T00970097
KCIR 241455Z AUTO 06006KT 1 1/2SM DZ OVC003 10/10 A2999 RMK AO2 P0003 60005 T00960096
KCIR 241435Z AUTO 06006KT 1 3/4SM DZ OVC003 10/10 A3000 RMK AO2 P0002 T00950095
KCIR 241415Z AUTO 06006KT 2SM -RA OVC003 10/10 A3000 RMK AO2 P0002 T00950095
KCIR 241355Z AUTO 03007KT 2 1/2SM -DZ OVC003 10/10 A3001 RMK AO2 P0002 T00950095
KCIR 241335Z AUTO 04006KT 2 1/2SM -RA OVC003 10/09 A3002 RMK AO2 P0002 T00950094
KCIR 241315Z AUTO 01003G08KT 4SM -DZ OVC005 10/10 A3002 RMK AO2 T00950095
KCIR 241255Z AUTO 02006KT 5SM -DZ OVC005 10/10 A3001 RMK AO2 T00950095
KCIR 241235Z AUTO 05007KT 5SM -RA OVC005 10/10 A3001 RMK AO2 T00950095
KCIR 241215Z AUTO 05010KT 5SM -DZ OVC005 10/10 A3000 RMK AO2 T00950095
KCIR 241155Z AUTO 05004KT 5SM RA OVC005 10/09 A3001 RMK AO2 P0004 60006 70021 T00950093 10101 20091
KCIR 241135Z AUTO 09005G16KT 4SM -RA OVC005 09/09 A3001 RMK AO2 LTG DSNT NW P0003 T00930092
KCIR 241115Z AUTO 07007KT 3SM DZ OVC005 09/09 A3001 RMK AO2 T00920091
KCIR 241055Z AUTO 05008KT 4SM -RA OVC005 09/09 A3002 RMK AO2 LTG DSNT NW P0002 T00910091
KCIR 241035Z AUTO 05008KT 4SM RA OVC005 09/09 A3002 RMK AO2 T00910090
KCIR 241015Z AUTO 04008KT 4SM -DZ BKN005 BKN014 OVC021 09/09 A3003 RMK AO2 LTG DSNT W T00910090
KCIR 240955Z AUTO 04009KT 3SM DZ BKN007 OVC020 09/09 A3004 RMK AO2 T00920090
KCIR 240935Z AUTO 02005KT 5SM RA BKN009 OVC022 10/09 A3005 RMK AO2 T00950090
KCIR 240915Z AUTO 02007KT 10SM BKN011 OVC026 10/09 A3006 RMK AO2 T00970091
KCIR 240855Z AUTO 05006KT 10SM OVC030 10/09 A3007 RMK AO2 T00980091
KCIR 240835Z AUTO 08005KT 10SM OVC032 10/09 A3007 RMK AO2 T01000091
KCIR 240815Z AUTO 06006KT 10SM OVC034 10/09 A3009 RMK AO2 T00990091
KCIR 240755Z AUTO 06007KT 10SM SCT036 OVC046 10/09 A3010 RMK AO2 T00980091
KCIR 240735Z AUTO 06006KT 10SM OVC050 10/09 A3010 RMK AO2 T00970091
KCIR 240715Z AUTO 04007KT 10SM OVC048 10/09 A3012 RMK AO2 T00980091
KCIR 240655Z AUTO 03004KT 10SM OVC048 10/09 A3014 RMK AO2 T01000091
KCIR 240635Z AUTO 06005KT 10SM OVC050 10/09 A3015 RMK AO2 T01000092
KCIR 240615Z AUTO 08005KT 10SM OVC050 10/09 A3016 RMK AO2 T01000091
KCIR 240555Z AUTO 09007KT 10SM SCT009 OVC055 10/09 A3017 RMK AO2 T01000091 10120 20100 401390095
KCIR 240535Z AUTO 08008KT 10SM BKN009 OVC055 10/09 A3017 RMK AO2 T01000092
KCIR 240515Z AUTO 07009KT 10SM OVC009 10/09 A3017 RMK AO2 T01010092
KCIR 240455Z AUTO 00000KT 10SM BKN009 OVC060 10/09 A3019 RMK AO2 T01010093
KCIR 240435Z AUTO 00000KT 10SM BKN009 OVC060 10/09 A3018 RMK AO2 LTG DSNT W T01020094
KCIR 240415Z AUTO 00000KT 10SM SCT009 BKN060 BKN085 10/09 A3019 RMK AO2 T01000093
KCIR 240355Z AUTO 06006KT 10SM SCT008 BKN060 OVC085 10/10 A3018 RMK AO2 T01040095